Time;durP1;ratioP1;P1;durP2;ratioP2;P2;SDS_P1;SDS_P2;PMS_P1;PMS_P2;Temp;Humidity;BMP_temperature;BMP_pressure;BME280_temperature;BME280_humidity;BME280_pressure;Samples;Min_cycle;Max_cycle;Signal;HPM_P1;HPM_P2
2022/09/22 00:01:25;;;;;;;1.80;1.70;;;22.40;64.20;;;;;;5113708;28;20440;-84
2022/09/22 00:03:55;;;;;;;2.63;2.10;;;22.40;64.20;;;;;;5113687;28;20485;-84
2022/09/22 00:06:23;;;;;;;1.47;1.37;;;22.40;64.30;;;;;;5113702;28;20497;-86
2022/09/22 00:08:53;;;;;;;1.80;1.70;;;22.40;64.20;;;;;;5113400;28;20431;-84
2022/09/22 00:11:22;;;;;;;1.50;1.40;;;22.40;64.20;;;;;;5113935;28;20435;-84
2022/09/22 00:13:51;;;;;;;1.70;1.60;;;22.40;64.20;;;;;;5113401;28;20525;-86
2022/09/22 00:16:19;;;;;;;1.63;1.53;;;22.40;64.20;;;;;;5113420;28;20439;-86
2022/09/22 00:18:46;;;;;;;1.60;1.50;;;22.40;64.20;;;;;;5113151;28;20478;-84
2022/09/22 00:21:15;;;;;;;1.50;1.40;;;22.40;65.20;;;;;;5113172;28;21026;-84
2022/09/22 00:23:42;;;;;;;1.90;1.80;;;22.40;64.20;;;;;;5117057;28;20461;-84
2022/09/22 00:26:12;;;;;;;1.97;1.87;;;22.40;64.20;;;;;;5117223;28;20475;-84
2022/09/22 00:28:41;;;;;;;1.97;1.87;;;22.40;64.20;;;;;;5116795;28;20450;-83
2022/09/22 00:31:08;;;;;;;1.63;1.53;;;22.40;64.20;;;;;;5116684;28;20571;-84
2022/09/22 00:33:36;;;;;;;1.97;1.77;;;22.40;64.10;;;;;;5116794;28;20446;-85
2022/09/22 00:36:04;;;;;;;1.67;1.57;;;22.40;64.10;;;;;;5116852;28;20542;-86
2022/09/22 00:38:32;;;;;;;1.70;1.60;;;22.40;64.10;;;;;;5116554;28;20435;-84
2022/09/22 00:41:00;;;;;;;1.60;1.50;;;22.30;64.00;;;;;;5116847;28;20439;-84
2022/09/22 00:43:29;;;;;;;1.60;1.50;;;22.40;64.10;;;;;;5116555;28;20450;-84
2022/09/22 00:46:01;;;;;;;1.70;1.60;;;22.40;64.10;;;;;;5116678;28;20439;-83
2022/09/22 00:48:31;;;;;;;1.80;1.70;;;22.40;64.10;;;;;;5117120;28;20443;-84
2022/09/22 00:51:01;;;;;;;1.70;1.60;;;22.40;64.10;;;;;;5116554;28;20943;-84
2022/09/22 00:53:30;;;;;;;1.93;1.83;;;22.40;64.10;;;;;;5116629;28;20467;-83
2022/09/22 00:56:01;;;;;;;1.53;1.43;;;22.30;64.00;;;;;;5116732;28;20466;-84
2022/09/22 00:58:33;;;;;;;1.33;1.23;;;22.40;64.20;;;;;;5116396;28;20940;-84
2022/09/22 01:01:01;;;;;;;1.70;1.60;;;22.40;64.10;;;;;;5116519;28;20443;-84
2022/09/22 01:03:29;;;;;;;1.73;1.63;;;22.30;64.00;;;;;;5116177;28;20514;-84
2022/09/22 01:05:59;;;;;;;1.93;1.83;;;22.30;63.90;;;;;;5116046;28;20446;-84
2022/09/22 01:08:27;;;;;;;1.90;1.80;;;22.30;63.90;;;;;;5116334;28;20441;-85
2022/09/22 01:10:54;;;;;;;1.70;1.60;;;22.30;63.90;;;;;;5116103;28;20450;-84
2022/09/22 01:13:27;;;;;;;1.93;1.83;;;22.30;63.90;;;;;;5115916;28;20438;-84
2022/09/22 01:16:18;;;;;;;1.50;1.40;;;22.30;64.00;;;;;;5116588;28;20445;-84
2022/09/22 01:19:01;;;;;;;1.80;1.70;;;22.30;63.90;;;;;;5115978;28;20832;-84
2022/09/22 01:21:40;;;;;;;1.73;1.63;;;22.30;63.90;;;;;;5115903;28;20457;-84
2022/09/22 01:24:42;;;;;;;1.30;1.20;;;22.30;64.00;;;;;;5115949;28;20470;-84
2022/09/22 01:27:51;;;;;;;2.00;1.90;;;22.30;63.90;;;;;;5099371;28;20489;-84
2022/09/22 01:30:25;;;;;;;1.73;1.63;;;22.30;64.00;;;;;;5115679;28;20854;-84
2022/09/22 01:33:16;;;;;;;1.50;1.40;;;22.30;64.00;;;;;;5115295;28;20447;-85
2022/09/22 01:35:57;;;;;;;1.77;1.67;;;22.30;63.90;;;;;;5115952;28;20951;-84
2022/09/22 01:38:31;;;;;;;1.50;1.40;;;22.30;64.80;;;;;;5115668;28;20439;-84
2022/09/22 01:41:03;;;;;;;1.50;1.40;;;22.30;63.90;;;;;;5115428;28;20427;-84
2022/09/22 01:43:38;;;;;;;2.03;1.93;;;22.30;63.90;;;;;;5115431;28;20445;-84
2022/09/22 01:46:10;;;;;;;1.63;1.53;;;22.30;63.90;;;;;;5115592;28;20439;-84
2022/09/22 01:48:43;;;;;;;1.53;1.43;;;22.30;64.00;;;;;;5115361;28;20443;-86
2022/09/22 01:51:14;;;;;;;1.50;1.40;;;22.30;63.90;;;;;;5115292;28;20434;-84
2022/09/22 01:53:47;;;;;;;2.00;1.90;;;22.30;63.90;;;;;;5115408;28;20813;-84
2022/09/22 01:56:16;;;;;;;1.77;1.67;;;22.30;63.90;;;;;;5115771;28;20504;-84
2022/09/22 01:58:48;;;;;;;1.70;1.60;;;22.30;63.90;;;;;;5115034;28;20435;-84
2022/09/22 02:01:19;;;;;;;1.60;1.50;;;22.30;63.90;;;;;;5114910;28;20457;-84
2022/09/22 02:03:52;;;;;;;1.90;1.80;;;22.30;63.90;;;;;;5115026;28;20435;-83
2022/09/22 02:06:23;;;;;;;1.97;1.87;;;22.30;64.00;;;;;;5115290;28;20443;-83
2022/09/22 02:08:55;;;;;;;1.40;1.30;;;22.30;63.90;;;;;;5115112;28;20443;-85
2022/09/22 02:12:17;;;;;;;1.40;1.30;;;22.30;64.00;;;;;;5114867;28;20443;-84
2022/09/22 02:14:44;;;;;;;1.50;1.40;;;22.30;63.80;;;;;;5114731;28;20431;-84
2022/09/22 02:17:14;;;;;;;1.53;1.43;;;22.20;63.90;;;;;;5114700;28;20465;-84
2022/09/22 02:19:41;;;;;;;2.10;1.97;;;22.20;63.80;;;;;;5114383;28;20995;-86
2022/09/22 02:22:10;;;;;;;1.50;1.40;;;22.20;63.80;;;;;;5114564;28;20956;-86
2022/09/22 02:24:39;;;;;;;2.17;1.57;;;22.20;63.80;;;;;;5114566;28;20459;-84
2022/09/22 02:27:08;;;;;;;1.80;1.70;;;22.30;63.90;;;;;;5114452;28;20513;-84
2022/09/22 02:29:39;;;;;;;1.77;1.50;;;22.20;63.80;;;;;;5114665;28;20442;-84
2022/09/22 02:32:11;;;;;;;1.50;1.40;;;22.20;63.80;;;;;;5114472;28;20809;-83
2022/09/22 02:34:39;;;;;;;1.63;1.53;;;22.30;63.90;;;;;;5114603;28;20443;-83
2022/09/22 02:37:14;;;;;;;1.90;1.80;;;22.20;63.80;;;;;;5114486;28;20450;-83
2022/09/22 02:39:47;;;;;;;1.50;1.40;;;22.20;63.80;;;;;;5114597;28;20450;-85
2022/09/22 02:42:27;;;;;;;1.83;1.70;;;22.20;63.80;;;;;;5114344;28;20439;-84
2022/09/22 02:45:00;;;;;;;1.50;1.40;;;22.30;63.80;;;;;;5114223;28;20930;-84
2022/09/22 02:47:32;;;;;;;1.73;1.63;;;22.20;63.70;;;;;;5114283;28;20489;-84
2022/09/22 02:50:04;;;;;;;1.80;1.70;;;22.20;63.70;;;;;;5114401;28;20450;-84
2022/09/22 02:52:30;;;;;;;1.60;1.50;;;22.20;63.70;;;;;;5114213;28;20454;-85
2022/09/22 02:54:57;;;;;;;1.73;1.63;;;22.20;63.70;;;;;;5114105;28;20465;-84
2022/09/22 02:57:24;;;;;;;1.60;1.50;;;22.20;63.60;;;;;;5114064;28;20435;-83
2022/09/22 02:59:51;;;;;;;1.63;1.53;;;22.20;63.60;;;;;;5114132;28;20439;-84
2022/09/22 03:02:18;;;;;;;1.70;1.60;;;22.20;63.60;;;;;;5114197;28;20435;-84
2022/09/22 03:04:44;;;;;;;1.60;1.50;;;22.20;63.50;;;;;;5114177;28;20426;-83
2022/09/22 03:07:13;;;;;;;1.67;1.57;;;22.20;63.60;;;;;;5113745;28;20481;-85
2022/09/22 03:09:39;;;;;;;1.60;1.50;;;22.20;63.60;;;;;;5114092;28;20447;-83
2022/09/22 03:12:06;;;;;;;1.67;1.57;;;22.20;63.50;;;;;;5114116;28;20454;-84
2022/09/22 03:14:33;;;;;;;1.77;1.67;;;22.20;63.50;;;;;;5113880;28;20447;-85
2022/09/22 03:17:00;;;;;;;1.60;1.50;;;22.20;63.50;;;;;;5114026;28;20443;-85
2022/09/22 03:19:27;;;;;;;1.77;1.67;;;22.20;63.50;;;;;;5113582;28;20475;-84
2022/09/22 03:21:53;;;;;;;1.70;1.60;;;22.30;63.60;;;;;;5113921;28;20469;-84
2022/09/22 03:24:21;;;;;;;1.40;1.30;;;22.20;63.40;;;;;;5113662;28;20836;-84
2022/09/22 03:26:48;;;;;;;1.43;1.27;;;22.20;63.40;;;;;;5113744;28;20441;-83
2022/09/22 03:29:15;;;;;;;1.50;1.40;;;22.20;63.40;;;;;;5113861;28;20443;-84
2022/09/22 03:31:42;;;;;;;1.50;1.40;;;22.20;63.40;;;;;;5113686;28;20430;-84
2022/09/22 03:34:08;;;;;;;1.77;1.67;;;22.20;63.30;;;;;;5113735;28;20435;-83
2022/09/22 03:36:35;;;;;;;1.43;1.33;;;22.20;63.40;;;;;;5113685;28;20763;-85
2022/09/22 03:39:02;;;;;;;1.57;1.30;;;22.20;63.40;;;;;;5113739;28;20525;-83
2022/09/22 03:41:30;;;;;;;1.60;1.50;;;22.20;63.40;;;;;;5113731;28;20445;-84
2022/09/22 03:43:57;;;;;;;1.53;1.43;;;22.20;63.40;;;;;;5113735;28;20496;-84
2022/09/22 03:46:24;;;;;;;1.40;1.30;;;22.20;63.40;;;;;;5113910;28;20439;-84
2022/09/22 03:48:51;;;;;;;1.70;1.60;;;22.20;63.40;;;;;;5113641;28;20479;-84
2022/09/22 03:51:19;;;;;;;1.60;1.50;;;22.20;63.30;;;;;;5113418;28;20439;-83
2022/09/22 03:53:46;;;;;;;1.60;1.50;;;22.20;63.30;;;;;;5113441;28;20469;-84
2022/09/22 03:56:14;;;;;;;1.63;1.53;;;22.20;63.30;;;;;;5115086;28;20500;-84
2022/09/22 03:58:43;;;;;;;2.00;1.90;;;22.30;63.40;;;;;;5117466;28;20442;-83
2022/09/22 04:01:11;;;;;;;1.70;1.60;;;22.20;63.30;;;;;;5117420;28;20965;-83
2022/09/22 04:03:38;;;;;;;2.03;1.93;;;22.20;63.30;;;;;;5117659;28;20784;-84
2022/09/22 04:06:05;;;;;;;2.03;1.43;;;22.20;63.20;;;;;;5117310;28;20446;-84
2022/09/22 04:08:32;;;;;;;1.40;1.30;;;22.20;63.20;;;;;;5117356;28;20493;-83
2022/09/22 04:10:59;;;;;;;1.60;1.50;;;22.20;63.20;;;;;;5116997;28;20443;-84
2022/09/22 04:13:26;;;;;;;1.73;1.63;;;22.20;63.20;;;;;;5117216;28;20443;-84
2022/09/22 04:15:55;;;;;;;1.47;1.37;;;22.20;63.20;;;;;;5117042;28;20446;-85
2022/09/22 04:18:22;;;;;;;1.43;1.33;;;22.20;63.10;;;;;;5116645;28;20453;-84
2022/09/22 04:20:50;;;;;;;1.77;1.67;;;22.20;63.20;;;;;;5117018;28;20434;-84
2022/09/22 04:23:17;;;;;;;1.50;1.40;;;22.10;63.00;;;;;;5117129;28;20463;-84
2022/09/22 04:25:43;;;;;;;1.47;1.37;;;22.10;63.00;;;;;;5117003;28;20491;-84
2022/09/22 04:28:10;;;;;;;1.53;1.43;;;22.10;63.00;;;;;;5116709;28;20478;-84
2022/09/22 04:30:37;;;;;;;1.40;1.30;;;22.10;63.00;;;;;;5116638;28;20442;-84
2022/09/22 04:33:05;;;;;;;1.40;1.30;;;22.10;63.00;;;;;;5116651;28;20442;-84
2022/09/22 04:35:32;;;;;;;1.43;1.33;;;22.10;62.90;;;;;;5116786;28;20439;-84
2022/09/22 04:37:59;;;;;;;1.40;1.30;;;22.10;62.90;;;;;;5116639;28;20454;-84
2022/09/22 04:40:26;;;;;;;1.50;1.40;;;22.10;62.90;;;;;;5116949;28;20443;-84
2022/09/22 04:42:53;;;;;;;1.50;1.40;;;22.10;63.00;;;;;;5116577;28;20446;-83
2022/09/22 04:45:20;;;;;;;1.50;1.40;;;22.10;62.90;;;;;;5116662;28;20934;-83
2022/09/22 04:47:47;;;;;;;1.87;1.77;;;22.10;62.90;;;;;;5116362;28;20482;-84
2022/09/22 04:50:17;;;;;;;1.50;1.40;;;22.10;62.90;;;;;;5116538;28;20488;-86
2022/09/22 04:52:46;;;;;;;1.50;1.40;;;22.10;62.90;;;;;;5116307;28;20929;-85
2022/09/22 04:55:14;;;;;;;1.23;1.13;;;22.10;62.80;;;;;;5116539;28;20466;-83
2022/09/22 04:57:41;;;;;;;1.60;1.50;;;22.10;62.80;;;;;;5116348;28;20508;-83
2022/09/22 05:00:09;;;;;;;1.40;1.30;;;22.10;62.90;;;;;;5116339;28;20442;-85
2022/09/22 05:02:36;;;;;;;1.20;1.10;;;22.10;62.80;;;;;;5116182;28;20439;-84
2022/09/22 05:05:04;;;;;;;1.37;1.27;;;22.10;62.80;;;;;;5116351;28;20956;-86
2022/09/22 05:07:32;;;;;;;1.57;1.47;;;22.10;62.80;;;;;;5115437;28;20573;-84
2022/09/22 05:09:59;;;;;;;1.30;1.20;;;22.10;62.80;;;;;;5116157;28;20443;-84
2022/09/22 05:12:27;;;;;;;1.50;1.40;;;22.10;62.80;;;;;;5115923;28;20451;-84
2022/09/22 05:14:54;;;;;;;1.30;1.20;;;22.10;62.80;;;;;;5115824;28;20455;-83
2022/09/22 05:17:21;;;;;;;1.63;1.53;;;22.10;62.80;;;;;;5115941;28;20446;-86
2022/09/22 05:19:48;;;;;;;1.57;1.47;;;22.10;62.80;;;;;;5114909;28;20539;-83
2022/09/22 05:22:15;;;;;;;1.50;1.40;;;22.10;62.80;;;;;;5115450;28;20945;-83
2022/09/22 05:24:44;;;;;;;1.70;1.60;;;22.10;62.80;;;;;;5115665;28;20483;-86
2022/09/22 05:27:12;;;;;;;1.40;1.30;;;22.20;62.90;;;;;;5115837;28;20446;-84
2022/09/22 05:29:39;;;;;;;1.63;1.50;;;22.10;62.80;;;;;;5115641;28;20474;-84
2022/09/22 05:32:06;;;;;;;1.40;1.30;;;22.10;62.80;;;;;;5115612;28;20439;-86
2022/09/22 05:34:33;;;;;;;1.40;1.30;;;22.10;62.70;;;;;;5115640;28;20435;-85
2022/09/22 05:36:59;;;;;;;1.43;1.33;;;22.10;62.80;;;;;;5115641;28;20444;-86
2022/09/22 05:39:26;;;;;;;1.43;1.33;;;22.10;62.80;;;;;;5115722;28;20435;-84
2022/09/22 05:41:54;;;;;;;1.33;1.23;;;22.10;62.60;;;;;;5115660;28;20446;-84
2022/09/22 05:44:22;;;;;;;1.40;1.30;;;22.10;62.70;;;;;;5115871;28;20431;-84
2022/09/22 05:46:49;;;;;;;1.50;1.40;;;22.10;62.80;;;;;;5115409;28;20457;-84
2022/09/22 05:49:16;;;;;;;1.40;1.30;;;22.10;62.70;;;;;;5115179;28;20482;-84
2022/09/22 05:51:42;;;;;;;1.50;1.40;;;22.10;62.70;;;;;;5115184;28;20441;-84
2022/09/22 05:54:09;;;;;;;1.30;1.20;;;22.10;62.70;;;;;;5115457;28;20467;-85
2022/09/22 05:56:36;;;;;;;1.60;1.50;;;22.10;62.60;;;;;;5115283;28;20496;-84
2022/09/22 05:59:04;;;;;;;1.37;1.27;;;22.10;62.70;;;;;;5115150;28;20435;-84
2022/09/22 06:01:31;;;;;;;1.70;1.50;;;22.10;62.70;;;;;;5115085;28;20439;-84
2022/09/22 06:03:58;;;;;;;1.43;1.33;;;22.10;62.60;;;;;;5115203;28;20446;-84
2022/09/22 06:06:25;;;;;;;1.60;1.50;;;22.20;62.80;;;;;;5114979;28;20439;-85
2022/09/22 06:08:51;;;;;;;1.40;1.30;;;22.10;62.70;;;;;;5114949;28;20486;-84
2022/09/22 06:11:18;;;;;;;1.50;1.40;;;22.00;62.60;;;;;;5114713;28;20446;-84
2022/09/22 06:13:45;;;;;;;1.57;1.47;;;22.00;62.60;;;;;;5114752;28;20814;-84
2022/09/22 06:16:13;;;;;;;1.30;1.20;;;22.10;63.50;;;;;;5114892;28;20918;-84
2022/09/22 06:18:40;;;;;;;1.60;1.50;;;22.10;62.70;;;;;;5114549;28;20477;-84
2022/09/22 06:21:07;;;;;;;1.70;1.60;;;22.10;62.70;;;;;;5114033;28;20435;-84
2022/09/22 06:23:33;;;;;;;1.20;1.10;;;22.00;62.50;;;;;;5114600;28;20485;-84
2022/09/22 06:26:00;;;;;;;1.53;1.43;;;22.00;62.60;;;;;;5114523;28;20791;-84
2022/09/22 06:28:27;;;;;;;1.37;1.27;;;22.00;62.50;;;;;;5113639;28;20489;-84
2022/09/22 06:30:58;;;;;;;1.50;1.40;;;22.10;62.70;;;;;;5113794;28;20448;-84
2022/09/22 06:33:27;;;;;;;1.73;1.63;;;22.20;62.70;;;;;;5114310;28;20435;-84
2022/09/22 06:35:55;;;;;;;1.33;1.23;;;22.10;62.70;;;;;;5114352;28;20440;-86
2022/09/22 06:38:22;;;;;;;1.20;1.10;;;22.00;62.50;;;;;;5114574;28;20974;-86
2022/09/22 06:40:49;;;;;;;1.43;1.33;;;22.00;62.50;;;;;;5114190;28;20442;-84
2022/09/22 06:43:21;;;;;;;1.53;1.43;;;22.00;62.60;;;;;;5114514;28;20447;-84
2022/09/22 06:45:50;;;;;;;1.70;1.60;;;22.10;62.70;;;;;;5114375;28;20488;-84
2022/09/22 06:48:17;;;;;;;1.43;1.33;;;22.00;62.60;;;;;;5114260;28;20478;-85
2022/09/22 06:50:50;;;;;;;1.47;1.37;;;22.10;62.70;;;;;;5114377;28;20771;-86
2022/09/22 06:53:17;;;;;;;1.50;1.40;;;22.10;62.60;;;;;;5114437;28;20454;-85
2022/09/22 06:55:44;;;;;;;1.37;1.20;;;22.00;62.50;;;;;;5114307;28;20816;-85
2022/09/22 06:58:15;;;;;;;1.50;1.40;;;22.10;62.60;;;;;;5114175;28;20792;-84
2022/09/22 07:00:42;;;;;;;1.63;1.53;;;22.20;62.70;;;;;;5114294;28;20913;-84
2022/09/22 07:03:16;;;;;;;1.50;1.40;;;22.10;62.70;;;;;;5114070;28;20435;-84
2022/09/22 07:05:53;;;;;;;1.30;1.20;;;22.10;62.70;;;;;;5114137;28;20514;-84
2022/09/22 07:08:20;;;;;;;1.43;1.33;;;22.10;62.70;;;;;;5113950;28;20831;-85
2022/09/22 07:10:52;;;;;;;1.40;1.30;;;22.20;62.80;;;;;;5113721;28;20534;-84
2022/09/22 07:13:19;;;;;;;1.60;1.50;;;22.10;62.70;;;;;;5113992;28;20435;-84
2022/09/22 07:15:46;;;;;;;1.60;1.50;;;22.00;62.70;;;;;;5114044;28;20466;-84
2022/09/22 07:18:13;;;;;;;2.10;1.40;;;22.00;62.70;;;;;;5113760;28;20982;-84
2022/09/22 07:20:40;;;;;;;1.50;1.40;;;22.00;62.70;;;;;;5114122;28;20534;-86
2022/09/22 07:23:17;;;;;;;1.50;1.40;;;22.00;62.70;;;;;;5113800;28;20459;-84
2022/09/22 07:25:44;;;;;;;1.43;1.33;;;22.10;62.80;;;;;;5113914;28;20439;-84
2022/09/22 07:28:12;;;;;;;1.30;1.20;;;22.00;62.80;;;;;;5113654;28;20469;-84
2022/09/22 07:30:40;;;;;;;1.70;1.60;;;22.10;62.80;;;;;;5114096;28;20521;-85
2022/09/22 07:33:07;;;;;;;1.40;1.30;;;22.00;62.80;;;;;;5117690;28;20469;-86
2022/09/22 07:35:36;;;;;;;1.60;1.50;;;22.10;62.90;;;;;;5117899;28;20446;-84
2022/09/22 07:38:03;;;;;;;1.50;1.40;;;22.10;62.90;;;;;;5117850;28;20437;-84
2022/09/22 07:40:31;;;;;;;1.40;1.30;;;22.10;62.90;;;;;;5118207;28;20447;-84
2022/09/22 07:42:58;;;;;;;1.40;1.30;;;22.10;63.00;;;;;;5117847;28;20445;-85
2022/09/22 07:45:25;;;;;;;1.40;1.30;;;22.10;62.90;;;;;;5118019;28;20450;-84
2022/09/22 07:50:36;;;;;;;1.60;1.50;;;22.10;63.00;;;;;;5117626;28;20438;-84
2022/09/22 07:53:03;;;;;;;1.60;1.50;;;22.20;63.10;;;;;;5117560;28;20485;-85
2022/09/22 07:55:35;;;;;;;1.40;1.30;;;22.10;63.00;;;;;;5117550;28;20779;-84
2022/09/22 07:58:03;;;;;;;1.30;1.20;;;22.30;63.20;;;;;;5117693;28;20530;-84
2022/09/22 08:00:32;;;;;;;1.20;1.10;;;22.10;63.00;;;;;;5117611;28;20431;-84
2022/09/22 08:03:00;;;;;;;1.50;1.40;;;22.10;63.00;;;;;;5117153;28;20449;-84
2022/09/22 08:05:28;;;;;;;1.50;1.40;;;22.10;63.00;;;;;;5117422;28;20453;-84
2022/09/22 08:07:57;;;;;;;1.60;1.50;;;22.20;63.20;;;;;;5117276;28;20922;-84
2022/09/22 08:10:24;;;;;;;1.80;1.70;;;22.20;63.10;;;;;;5117194;28;20569;-84
2022/09/22 08:12:53;;;;;;;1.30;1.20;;;22.20;63.10;;;;;;5117198;28;20439;-85
2022/09/22 08:15:22;;;;;;;1.10;1.00;;;22.20;63.20;;;;;;5116989;28;20802;-84
2022/09/22 08:17:49;;;;;;;1.20;1.00;;;22.20;63.20;;;;;;5117273;28;20875;-84
2022/09/22 08:20:17;;;;;;;1.53;1.43;;;22.20;63.20;;;;;;5116909;28;20521;-84
2022/09/22 08:22:44;;;;;;;1.10;1.00;;;22.20;63.20;;;;;;5116893;28;20917;-84
2022/09/22 08:25:12;;;;;;;1.20;1.10;;;22.20;63.20;;;;;;5116773;28;20534;-84
2022/09/22 08:27:40;;;;;;;1.70;1.60;;;22.20;63.20;;;;;;5117060;28;20447;-84
2022/09/22 08:30:10;;;;;;;1.60;1.50;;;22.20;63.20;;;;;;5116699;28;20483;-85
2022/09/22 08:32:37;;;;;;;1.20;1.10;;;22.20;63.20;;;;;;5116890;28;20443;-84
2022/09/22 08:35:05;;;;;;;1.30;1.20;;;22.20;63.20;;;;;;5116830;28;20447;-84
2022/09/22 08:37:32;;;;;;;1.50;1.40;;;22.20;63.20;;;;;;5116774;28;21001;-84
2022/09/22 08:39:58;;;;;;;1.33;1.23;;;22.20;63.10;;;;;;5116786;28;20800;-85
2022/09/22 08:42:27;;;;;;;1.27;1.17;;;22.20;63.20;;;;;;5115717;28;20817;-84
2022/09/22 08:44:59;;;;;;;1.37;1.27;;;22.20;63.10;;;;;;5116807;28;20445;-86
2022/09/22 08:53:22;;;;;;;1.03;0.90;;;22.20;63.10;;;;;;5116623;28;20479;-84
2022/09/22 08:55:55;;;;;;;1.33;1.13;;;22.20;63.20;;;;;;5116723;28;20492;-84
2022/09/22 08:58:32;;;;;;;1.30;1.20;;;22.20;63.20;;;;;;5116526;28;20439;-84
2022/09/22 09:01:09;;;;;;;1.20;1.10;;;22.20;63.30;;;;;;5116086;28;20439;-84
2022/09/22 09:03:53;;;;;;;1.47;1.37;;;22.20;63.20;;;;;;5116412;28;20441;-84
2022/09/22 09:06:29;;;;;;;1.43;1.33;;;22.30;63.20;;;;;;5116303;28;20446;-84
2022/09/22 09:09:21;;;;;;;1.30;1.20;;;22.30;64.10;;;;;;5116209;28;20497;-85
2022/09/22 09:12:14;;;;;;;1.10;1.00;;;22.30;63.10;;;;;;5116409;28;20455;-85
2022/09/22 09:14:57;;;;;;;1.20;1.10;;;22.30;63.20;;;;;;5116182;28;20443;-84
2022/09/22 09:17:29;;;;;;;1.20;1.10;;;22.30;63.20;;;;;;5116077;28;20445;-86
2022/09/22 09:20:01;;;;;;;1.27;1.17;;;22.30;63.20;;;;;;5115669;28;20478;-84
2022/09/22 09:22:33;;;;;;;1.20;1.10;;;22.40;63.30;;;;;;5115927;28;20925;-84
2022/09/22 09:25:07;;;;;;;1.33;1.23;;;22.30;63.20;;;;;;5115829;28;20459;-84
2022/09/22 09:27:39;;;;;;;1.20;1.10;;;22.30;63.20;;;;;;5115941;28;20453;-85
2022/09/22 09:30:11;;;;;;;1.50;1.40;;;22.30;63.20;;;;;;5115615;28;20490;-84
2022/09/22 09:32:46;;;;;;;1.30;1.20;;;22.30;63.20;;;;;;5115611;28;20446;-84
2022/09/22 09:35:16;;;;;;;1.33;1.23;;;22.30;63.30;;;;;;5115666;28;20967;-86
2022/09/22 09:37:44;;;;;;;1.20;1.10;;;22.30;63.20;;;;;;5115720;28;20439;-84
2022/09/22 09:40:15;;;;;;;1.10;1.00;;;22.30;63.20;;;;;;5115906;28;20440;-84
2022/09/22 09:42:44;;;;;;;1.40;1.30;;;22.30;63.20;;;;;;5115721;28;20453;-84
2022/09/22 09:45:14;;;;;;;1.17;1.00;;;22.30;64.20;;;;;;5115438;28;20435;-84
2022/09/22 09:48:00;;;;;;;1.20;1.00;;;22.30;63.30;;;;;;5115564;28;20440;-86
2022/09/22 09:50:30;;;;;;;1.10;1.00;;;22.30;63.20;;;;;;5115262;28;20497;-85
2022/09/22 09:52:58;;;;;;;1.47;1.37;;;22.30;63.30;;;;;;5115312;28;20976;-84
2022/09/22 09:55:25;;;;;;;1.33;1.23;;;22.30;63.40;;;;;;5115095;28;21266;-84
2022/09/22 09:58:04;;;;;;;1.40;1.30;;;22.30;63.40;;;;;;5115032;28;20435;-84
2022/09/22 10:00:31;;;;;;;1.20;1.10;;;22.30;63.30;;;;;;5115202;28;20485;-84
2022/09/22 10:03:05;;;;;;;1.20;1.10;;;22.30;63.40;;;;;;5114961;28;20478;-84
2022/09/22 10:05:36;;;;;;;1.27;1.10;;;22.30;63.40;;;;;;5115183;28;20794;-84
2022/09/22 10:08:14;;;;;;;1.23;1.13;;;22.30;63.40;;;;;;5114950;28;20471;-84
2022/09/22 10:10:41;;;;;;;1.30;1.20;;;22.30;63.40;;;;;;5114994;28;20522;-84
2022/09/22 10:13:30;;;;;;;1.30;1.20;;;22.30;63.50;;;;;;5114953;28;20439;-84
2022/09/22 10:16:23;;;;;;;1.20;1.10;;;22.30;63.40;;;;;;5114777;28;20446;-86
2022/09/22 10:18:52;;;;;;;1.17;1.07;;;22.30;63.40;;;;;;5108094;28;20471;-84
2022/09/22 10:21:22;;;;;;;1.20;1.10;;;22.30;63.50;;;;;;5114847;28;20796;-84
2022/09/22 10:23:50;;;;;;;1.50;1.40;;;22.40;63.60;;;;;;5114399;28;20455;-84
2022/09/22 10:26:25;;;;;;;1.20;1.10;;;22.30;63.60;;;;;;5114743;28;20438;-85
2022/09/22 10:29:16;;;;;;;1.10;1.00;;;22.30;63.50;;;;;;5114533;28;20451;-84
2022/09/22 10:32:01;;;;;;;1.30;1.00;;;22.30;63.50;;;;;;5107198;28;20526;-84
2022/09/22 10:34:31;;;;;;;1.17;1.07;;;22.30;63.50;;;;;;5114620;28;20560;-85
2022/09/22 10:37:00;;;;;;;1.00;0.90;;;22.30;63.60;;;;;;5114712;28;20435;-85
2022/09/22 10:39:35;;;;;;;1.00;0.90;;;22.30;63.60;;;;;;5114264;28;20449;-84
2022/09/22 10:42:06;;;;;;;1.03;0.93;;;22.30;63.50;;;;;;5114567;28;20522;-84
2022/09/22 10:44:33;;;;;;;1.20;1.10;;;22.30;63.60;;;;;;5114388;28;20431;-84
2022/09/22 10:47:33;;;;;;;1.27;1.10;;;22.30;63.60;;;;;;5114456;28;20435;-84
2022/09/22 10:50:27;;;;;;;1.20;1.10;;;22.40;63.60;;;;;;5108718;28;20482;-84
2022/09/22 10:53:05;;;;;;;1.77;1.67;;;22.30;63.50;;;;;;5114291;28;20815;-84
2022/09/22 10:55:37;;;;;;;1.00;0.90;;;22.30;63.60;;;;;;5114318;28;20921;-84
2022/09/22 10:58:25;;;;;;;1.10;1.00;;;22.30;63.60;;;;;;5114049;28;20447;-86
2022/09/22 11:01:01;;;;;;;1.10;1.00;;;22.30;63.50;;;;;;5114263;28;20864;-84
2022/09/22 11:04:03;;;;;;;1.07;0.97;;;22.30;63.60;;;;;;5114025;28;20453;-84
2022/09/22 11:12:41;;;;;;;1.00;0.90;;;22.30;63.70;;;;;;5114639;28;20410;-84
2022/09/22 11:15:22;;;;;;;1.40;1.20;;;22.40;63.80;;;;;;5114098;28;20960;-85
2022/09/22 11:18:17;;;;;;;1.33;1.10;;;22.30;63.70;;;;;;5114038;28;20785;-84
2022/09/22 11:20:47;;;;;;;0.80;0.80;;;22.40;63.80;;;;;;5113721;28;20529;-85
2022/09/22 11:23:39;;;;;;;1.10;1.00;;;22.30;63.80;;;;;;5113969;28;20490;-84
2022/09/22 11:26:27;;;;;;;0.83;0.80;;;22.40;63.80;;;;;;5113950;28;20430;-84
2022/09/22 11:29:24;;;;;;;1.13;1.03;;;22.40;63.80;;;;;;5113634;28;20435;-84
2022/09/22 11:32:05;;;;;;;0.90;0.83;;;22.30;63.80;;;;;;5113625;28;20435;-84
2022/09/22 11:34:46;;;;;;;1.07;0.97;;;22.30;63.70;;;;;;5113622;28;20435;-84
2022/09/22 11:37:27;;;;;;;3.87;1.10;;;22.40;63.80;;;;;;5113786;28;20439;-84
2022/09/22 11:40:15;;;;;;;1.00;0.90;;;22.40;64.60;;;;;;5113797;28;20434;-84
2022/09/22 11:42:52;;;;;;;1.00;0.90;;;22.30;63.70;;;;;;5113889;28;20439;-84
2022/09/22 11:45:33;;;;;;;1.00;0.90;;;22.30;63.70;;;;;;5113918;28;20431;-85
2022/09/22 11:48:11;;;;;;;1.67;1.10;;;22.40;63.80;;;;;;5113858;28;20438;-84
2022/09/22 11:51:00;;;;;;;1.30;1.20;;;22.40;63.80;;;;;;5113488;28;20478;-85
2022/09/22 11:53:46;;;;;;;1.30;1.20;;;22.40;63.80;;;;;;5113685;28;20858;-84
2022/09/22 11:56:32;;;;;;;1.10;1.00;;;22.40;63.80;;;;;;5113656;28;20439;-84
2022/09/22 11:59:06;;;;;;;1.10;1.00;;;22.40;63.90;;;;;;5113566;28;20434;-84
2022/09/22 12:01:39;;;;;;;1.00;0.90;;;22.50;64.00;;;;;;5113508;28;20787;-84
2022/09/22 12:04:15;;;;;;;0.90;0.90;;;22.50;64.00;;;;;;5113453;28;20488;-86
2022/09/22 12:06:46;;;;;;;1.00;0.90;;;22.40;63.80;;;;;;5113413;28;20449;-84
2022/09/22 12:09:25;;;;;;;1.00;0.90;;;22.40;63.80;;;;;;5113934;28;20446;-84
2022/09/22 12:11:54;;;;;;;1.10;1.00;;;22.40;63.80;;;;;;5113597;28;20427;-84
2022/09/22 12:14:23;;;;;;;0.93;0.83;;;22.40;63.80;;;;;;5113240;28;20439;-84
2022/09/22 12:16:54;;;;;;;1.07;0.97;;;22.40;63.90;;;;;;5113268;28;20434;-84
2022/09/22 12:19:26;;;;;;;0.93;0.83;;;22.40;63.80;;;;;;5116443;28;20470;-84
2022/09/22 12:22:04;;;;;;;1.10;1.00;;;22.40;63.80;;;;;;5114552;28;20439;-85
2022/09/22 12:24:32;;;;;;;1.00;0.90;;;22.40;63.80;;;;;;5114431;27;20459;-85
2022/09/22 12:27:09;;;;;;;1.07;0.97;;;22.40;63.80;;;;;;5116412;27;21140;-84
2022/09/22 12:29:38;;;;;;;0.97;0.87;;;22.40;63.80;;;;;;5116444;28;20434;-84
2022/09/22 12:32:05;;;;;;;0.90;0.80;;;22.40;63.80;;;;;;5116581;28;20431;-84
2022/09/22 12:34:38;;;;;;;1.10;1.00;;;22.40;63.80;;;;;;5117370;28;20438;-84
2022/09/22 12:37:11;;;;;;;1.17;1.07;;;22.40;63.80;;;;;;5116749;28;20447;-85
2022/09/22 12:39:42;;;;;;;1.00;0.90;;;22.40;63.80;;;;;;5116803;28;20439;-84
2022/09/22 12:42:20;;;;;;;1.30;1.20;;;22.40;63.80;;;;;;5116728;28;20438;-84
2022/09/22 12:44:51;;;;;;;0.93;0.83;;;22.40;63.70;;;;;;5116840;28;20423;-84
2022/09/22 12:47:22;;;;;;;1.10;0.90;;;22.40;63.80;;;;;;5116483;28;20441;-85
2022/09/22 12:49:57;;;;;;;1.10;1.00;;;22.40;63.80;;;;;;5116771;28;20477;-84
2022/09/22 12:52:53;;;;;;;1.00;0.90;;;22.40;63.70;;;;;;5116606;28;20535;-84
2022/09/22 12:55:21;;;;;;;1.00;0.90;;;22.40;63.70;;;;;;5116403;28;20452;-84
2022/09/22 12:57:50;;;;;;;1.00;0.90;;;22.40;63.80;;;;;;5116503;28;20439;-84
2022/09/22 13:00:27;;;;;;;1.20;1.07;;;22.40;63.70;;;;;;5116360;28;20922;-85
2022/09/22 13:02:55;;;;;;;0.80;0.80;;;22.40;63.70;;;;;;5116298;28;20470;-84
2022/09/22 13:05:38;;;;;;;1.00;0.83;;;22.40;63.70;;;;;;5116357;28;20435;-84
2022/09/22 13:08:05;;;;;;;0.90;0.80;;;22.40;63.70;;;;;;5116343;28;20442;-85
2022/09/22 13:10:50;;;;;;;1.00;0.80;;;22.40;63.80;;;;;;5115979;28;20489;-84
2022/09/22 13:13:24;;;;;;;1.00;0.90;;;22.40;63.70;;;;;;5116404;28;20447;-85
2022/09/22 13:15:58;;;;;;;0.90;0.80;;;22.40;63.80;;;;;;5116208;28;20443;-85
2022/09/22 13:18:30;;;;;;;0.90;0.80;;;22.40;63.70;;;;;;5116055;28;20808;-84
2022/09/22 13:20:57;;;;;;;1.03;0.80;;;22.40;63.70;;;;;;5116079;28;20439;-85
2022/09/22 13:23:25;;;;;;;0.80;0.80;;;22.40;63.70;;;;;;5115914;28;21027;-85
2022/09/22 13:25:52;;;;;;;0.80;0.70;;;22.40;63.70;;;;;;5115899;28;20454;-84